Impacts METAR Board
IDs:

KCSG - Columbus Arpt, GA, US

Updated at: 2200 UTC 23 May 2018
Potential Impact None Slight Moderate High
Time 23/10Z 23/11Z 23/12Z 23/13Z 23/14Z 23/15Z 23/16Z 23/17Z 23/18Z 23/19Z 23/20Z 23/21Z 23/22Z
Temp73 73 73 73 72 71 72 76 77 78 81 83 81
Dewpt71 71 71 71 69 69 70 70 70 71 71 70 72
Altim30.02 30.04 30.05 30.08 30.10 30.11 30.09 30.09 30.06 30.05 30.04 30.02 30.02
VIS5 3 10 4 10 0.5 10 10 10 10 10 10 10
CIG7 6 10 6 7 33 22 22 45 -- -- -- --
CoverOVCOVCOVCOVCOVCOVCOVCBKNBKNCLRCLRFEWCLR
FltCatIFRIFRMVFRIFRIFRLIFRMVFRMVFRVFRVFRVFRVFRVFR
WXVCTS RA BRVCTS +RA BR-TSRAVCTS -RA BR-RA+RA FG-RA------------
WDir230240260240120000000340250
WSpd8 7 5 4 5 0 0 0 0 0 3 4 5
WGst-- -- -- -- -- -- -- -- -- -- -- -- --
Raw hourly METARs
KCSG 230951Z AUTO 23008KT 5SM VCTS RA BR OVC007 23/22 A3002 RMK AO2 LTG DSNT NE AND NW SLP161 P0013 T02280217
KCSG 231051Z AUTO 24007KT 3SM VCTS +RA BR BKN006 OVC014 23/22 A3004 RMK AO2 LTG DSNT NE AND E TSB34E49 SLP166 P0023 T02280217
KCSG 231157Z AUTO 26005KT 10SM -TSRA FEW004 BKN010 OVC030 23/22 A3005 RMK AO2 LTG DSNT NE AND E TSE53B57 P0000 T02280217
KCSG 231251Z 24004KT 4SM VCTS -RA BR OVC006 23/22 A3008 RMK AO2 LTG DSNT NE AND E RAE05B17 TSE1153B1157E12 SLP181 P0002 T02280217
KCSG 231351Z 12005KT 10SM -RA OVC007 22/21 A3010 RMK AO2 LTG DSNT S SLP188 P0002 T02220206
KCSG 231459Z 00000KT 1/2SM +RA FG FEW018 BKN033 OVC060 22/21 A3011 RMK AO2 LTG DSNT SE P0009 T02170206
KCSG 231551Z 00000KT 10SM -RA SCT007 BKN022 OVC110 22/21 A3009 RMK AO2 SLP187 P0020 T02220211
KCSG 231705Z 00000KT 10SM SCT007 BKN022 BKN045 24/21 A3009 RMK AO2 T02440211
KCSG 231751Z 00000KT 10SM SCT007 SCT022 BKN045 25/21 A3006 RMK AO2 SLP175 60054 T02500211 10256 20217 58016
KCSG 231851Z 00000KT 10SM CLR 26/22 A3005 RMK AO2 SLP170 T02560217
KCSG 231951Z VRB03KT 10SM CLR 27/22 A3004 RMK AO2 SLP167 T02720217
KCSG 232051Z 34004KT 10SM FEW026 28/21 A3002 RMK AO2 LTG DSNT W SLP160 T02830211 58015
KCSG 232151Z 25005KT 10SM CLR 27/22 A3002 RMK AO2 LTG DSNT NE AND E SLP161 T02720222



Page loaded:  22:14 UTC  |   03:14 PM Pacific  |   04:14 PM Mountain  |   05:14 PM Central  |   06:14 PM Eastern

 

ADVISORIES

FORECASTS

FORECASTS

OBSERVATIONS

USER TOOLS

ABOUT US